Time;durP1;ratioP1;P1;durP2;ratioP2;P2;SDS_P1;SDS_P2;PMS_P1;PMS_P2;Temp;Humidity;BMP_temperature;BMP_pressure;BME280_temperature;BME280_humidity;BME280_pressure;Samples;Min_cycle;Max_cycle;Signal;HPM_P1;HPM_P2
2022/06/03 00:01:42;;;;;;;12.20;7.90;;;10.10;99.90;;;;;;5053938;28;20027;-76
2022/06/03 00:04:14;;;;;;;23.92;12.63;;;10.10;99.90;;;;;;5053454;28;20044;-74
2022/06/03 00:06:48;;;;;;;28.60;13.55;;;10.00;99.90;;;;;;5053739;28;20029;-74
2022/06/03 00:10:01;;;;;;;25.08;11.65;;;10.00;99.90;;;;;;5053855;28;20120;-77
2022/06/03 00:12:48;;;;;;;7.27;5.20;;;9.90;99.90;;;;;;5009010;28;20074;-75
2022/06/03 00:15:26;;;;;;;6.10;5.53;;;9.80;99.90;;;;;;5052263;28;20294;-77
2022/06/03 00:17:58;;;;;;;4.75;4.35;;;9.80;99.90;;;;;;5053748;28;20095;-77
2022/06/03 00:20:26;;;;;;;7.88;5.28;;;9.80;99.90;;;;;;5072328;28;20024;-76
2022/06/03 00:23:01;;;;;;;5.00;4.60;;;9.70;99.90;;;;;;5073426;28;20070;-77
2022/06/03 00:25:29;;;;;;;5.57;4.75;;;9.70;99.90;;;;;;5071907;28;20044;-77
2022/06/03 00:28:04;;;;;;;5.47;4.97;;;9.70;99.90;;;;;;5072043;28;20120;-77
2022/06/03 00:31:11;;;;;;;5.55;4.95;;;9.70;99.90;;;;;;5073178;28;20035;-77
2022/06/03 00:33:39;;;;;;;8.68;5.05;;;9.70;99.90;;;;;;5073233;28;20024;-76
2022/06/03 00:36:23;;;;;;;5.38;4.93;;;9.60;99.90;;;;;;5073144;28;20059;-76
2022/06/03 00:38:58;;;;;;;5.35;4.85;;;9.60;99.90;;;;;;5072033;28;20038;-77
2022/06/03 00:41:56;;;;;;;4.60;4.10;;;9.60;99.90;;;;;;5071760;28;20050;-76
2022/06/03 00:44:25;;;;;;;5.07;4.57;;;9.60;99.90;;;;;;5073243;28;20031;-76
2022/06/03 00:47:20;;;;;;;4.85;4.50;;;9.60;99.90;;;;;;5073116;28;20031;-76
2022/06/03 00:50:02;;;;;;;4.82;4.18;;;9.60;99.90;;;;;;5073073;28;20078;-75
2022/06/03 00:52:54;;;;;;;5.20;4.65;;;9.60;99.90;;;;;;5071776;28;20032;-74
2022/06/03 00:55:58;;;;;;;4.75;4.28;;;9.50;99.90;;;;;;5071792;28;20470;-74
2022/06/03 00:58:42;;;;;;;5.30;4.80;;;9.50;99.90;;;;;;5071686;28;20027;-74
2022/06/03 01:01:34;;;;;;;6.35;5.05;;;9.50;99.90;;;;;;5071654;28;20127;-74
2022/06/03 01:04:11;;;;;;;4.87;4.17;;;9.40;99.90;;;;;;5072791;28;20120;-74
2022/06/03 01:07:12;;;;;;;5.32;4.18;;;9.40;99.90;;;;;;5071728;28;20028;-76
2022/06/03 01:09:48;;;;;;;4.50;4.20;;;9.30;99.90;;;;;;5072887;28;20115;-76
2022/06/03 01:12:38;;;;;;;4.00;3.70;;;9.20;99.90;;;;;;5072939;28;20455;-77
2022/06/03 01:15:36;;;;;;;5.65;4.03;;;9.20;99.90;;;;;;5072849;28;20036;-74
2022/06/03 01:18:47;;;;;;;3.92;3.63;;;9.10;99.90;;;;;;5073225;28;20096;-74
2022/06/03 01:21:18;;;;;;;4.38;3.97;;;9.10;99.90;;;;;;5011227;28;20026;-75
2022/06/03 01:24:04;;;;;;;4.87;4.40;;;9.00;99.90;;;;;;5010922;28;20049;-74
2022/06/03 01:27:21;;;;;;;4.70;4.35;;;9.00;99.90;;;;;;5056237;28;20032;-76
2022/06/03 01:30:02;;;;;;;4.93;4.43;;;9.00;99.90;;;;;;5072633;28;20174;-77
2022/06/03 01:32:46;;;;;;;4.57;4.18;;;8.90;99.90;;;;;;5071423;28;20466;-74
2022/06/03 01:35:37;;;;;;;4.25;3.90;;;8.90;99.90;;;;;;5072615;28;20074;-74
2022/06/03 01:38:21;;;;;;;4.47;4.07;;;8.80;99.90;;;;;;5088265;28;20028;-74
2022/06/03 01:41:31;;;;;;;4.93;4.25;;;8.80;99.90;;;;;;5072770;28;20025;-76
2022/06/03 01:44:00;;;;;;;4.32;3.92;;;8.70;99.90;;;;;;5072578;28;20021;-74
2022/06/03 01:46:38;;;;;;;4.25;3.83;;;8.70;99.90;;;;;;5072558;28;20520;-76
2022/06/03 01:49:23;;;;;;;4.57;4.18;;;8.70;99.90;;;;;;5071293;28;20037;-76
2022/06/03 01:52:11;;;;;;;4.50;4.10;;;8.70;99.90;;;;;;5072451;28;20038;-74
2022/06/03 01:54:52;;;;;;;4.75;4.35;;;8.70;99.90;;;;;;5088090;28;20024;-77
2022/06/03 01:57:34;;;;;;;5.00;4.50;;;8.60;99.90;;;;;;5087969;28;20482;-77
2022/06/03 02:00:03;;;;;;;4.63;4.00;;;8.60;99.90;;;;;;5072537;28;20587;-76
2022/06/03 02:03:01;;;;;;;5.47;4.22;;;8.50;99.90;;;;;;5072340;28;20549;-77
2022/06/03 02:05:45;;;;;;;4.43;3.92;;;8.40;99.90;;;;;;5072464;28;20067;-78
2022/06/03 02:08:36;;;;;;;4.55;4.15;;;8.40;99.90;;;;;;5072473;28;20036;-77
2022/06/03 02:11:27;;;;;;;5.80;4.47;;;8.40;99.90;;;;;;5087911;28;20041;-78
2022/06/03 02:14:04;;;;;;;5.07;3.92;;;8.40;99.90;;;;;;5072157;28;20103;-75
2022/06/03 02:17:03;;;;;;;4.13;3.83;;;8.40;99.90;;;;;;5088112;28;20079;-75
2022/06/03 02:20:04;;;;;;;5.18;4.78;;;8.30;99.90;;;;;;5075669;28;20054;-75
2022/06/03 02:22:51;;;;;;;3.80;3.50;;;8.30;99.90;;;;;;5076028;28;20035;-75
2022/06/03 02:25:38;;;;;;;4.07;3.67;;;8.30;99.90;;;;;;5066683;28;20021;-75
2022/06/03 02:28:15;;;;;;;4.45;4.07;;;8.30;99.90;;;;;;5054292;28;20035;-78
2022/06/03 02:31:10;;;;;;;5.53;4.25;;;8.30;99.90;;;;;;5055769;28;20036;-75
2022/06/03 02:34:07;;;;;;;4.90;4.25;;;8.40;99.90;;;;;;5054000;28;20114;-78
2022/06/03 02:37:00;;;;;;;5.10;4.60;;;8.40;99.90;;;;;;5055539;28;20025;-75
2022/06/03 02:39:44;;;;;;;;;;;8.40;99.90;;;;;;5055852;28;20032;-78
2022/06/03 02:42:32;;;;;;;3.88;3.58;;;8.30;99.90;;;;;;5054152;28;19904;-77
2022/06/03 02:45:22;;;;;;;3.42;3.15;;;8.20;99.90;;;;;;5055424;28;20025;-77
2022/06/03 02:48:30;;;;;;;5.40;4.35;;;8.20;99.90;;;;;;5055556;28;20109;-77
2022/06/03 02:51:10;;;;;;;6.47;4.38;;;8.20;99.90;;;;;;5055433;28;20040;-75
2022/06/03 02:53:48;;;;;;;5.50;4.18;;;8.20;99.90;;;;;;5053747;28;20025;-77
2022/06/03 02:56:38;;;;;;;3.90;3.65;;;8.20;99.90;;;;;;5055285;28;20474;-74
2022/06/03 02:59:24;;;;;;;4.47;4.07;;;8.20;99.90;;;;;;5053869;28;20032;-77
2022/06/03 03:02:27;;;;;;;11.55;5.47;;;8.30;99.90;;;;;;5055102;28;20017;-77
2022/06/03 03:04:56;;;;;;;5.82;5.32;;;8.30;99.90;;;;;;5054861;28;20044;-74
2022/06/03 03:07:25;;;;;;;6.22;4.82;;;8.40;99.90;;;;;;5053533;28;20398;-77
2022/06/03 03:10:15;;;;;;;5.10;4.60;;;8.50;99.90;;;;;;5053596;28;20072;-77
2022/06/03 03:12:55;;;;;;;10.05;5.65;;;8.50;99.90;;;;;;5054975;28;20099;-77
2022/06/03 03:15:27;;;;;;;6.55;4.88;;;8.60;99.90;;;;;;5054873;28;20397;-74
2022/06/03 03:18:17;;;;;;;7.07;4.63;;;8.70;99.90;;;;;;5054748;28;20017;-77
2022/06/03 03:21:20;;;;;;;5.20;4.53;;;8.80;99.90;;;;;;5054880;28;20505;-74
2022/06/03 03:23:47;;;;;;;17.48;6.07;;;9.00;99.90;;;;;;5054596;28;20053;-74
2022/06/03 03:26:32;;;;;;;13.18;4.75;;;9.10;99.90;;;;;;5070413;28;20406;-77
2022/06/03 03:29:23;;;;;;;6.00;4.90;;;9.00;99.90;;;;;;5073273;28;20033;-77
2022/06/03 03:32:22;;;;;;;5.07;3.90;;;9.00;99.90;;;;;;5073164;28;20497;-77
2022/06/03 03:34:54;;;;;;;4.28;3.72;;;9.20;99.90;;;;;;5061069;28;20078;-75
2022/06/03 03:37:52;;;;;;;5.05;4.35;;;9.20;99.90;;;;;;5073062;28;20035;-74
2022/06/03 03:40:20;;;;;;;4.50;4.20;;;9.40;99.90;;;;;;5073165;28;20031;-77
2022/06/03 03:43:09;;;;;;;5.57;4.22;;;9.50;99.90;;;;;;5074465;28;20020;-77
2022/06/03 03:46:02;;;;;;;5.82;4.30;;;9.70;99.90;;;;;;5072909;28;20021;-76
2022/06/03 03:48:47;;;;;;;4.88;4.20;;;9.80;99.90;;;;;;5074371;28;20025;-74
2022/06/03 03:51:33;;;;;;;4.47;4.15;;;10.00;99.90;;;;;;5072856;28;20048;-75
2022/06/03 03:54:26;;;;;;;4.80;4.30;;;10.10;99.90;;;;;;5072658;28;20036;-75
2022/06/03 03:57:20;;;;;;;4.13;3.83;;;10.30;99.90;;;;;;5072769;28;20052;-77
2022/06/03 04:00:06;;;;;;;4.60;4.20;;;10.40;99.90;;;;;;5072558;28;20121;-75
2022/06/03 04:02:51;;;;;;;4.40;4.00;;;10.60;99.90;;;;;;5074078;28;20028;-77
2022/06/03 04:05:47;;;;;;;3.90;3.60;;;10.80;99.90;;;;;;5073465;28;20083;-77
2022/06/03 04:08:35;;;;;;;4.75;4.40;;;11.20;99.90;;;;;;5072554;28;20032;-77
2022/06/03 04:11:26;;;;;;;5.18;4.78;;;11.40;99.90;;;;;;5072693;28;20024;-74
2022/06/03 04:14:29;;;;;;;5.90;3.80;;;11.60;99.90;;;;;;5073688;28;20374;-74
2022/06/03 04:17:36;;;;;;;3.55;3.35;;;11.70;99.90;;;;;;5073658;28;20029;-74
2022/06/03 04:20:49;;;;;;;3.85;3.55;;;12.10;99.90;;;;;;5055024;28;20112;-75
2022/06/03 04:23:32;;;;;;;4.28;3.92;;;12.30;99.90;;;;;;5053526;28;20021;-74
2022/06/03 04:26:32;;;;;;;4.15;3.85;;;12.40;99.90;;;;;;5067515;28;20462;-77
2022/06/03 04:29:34;;;;;;;4.72;3.67;;;12.60;96.00;;;;;;5073273;28;20097;-77
2022/06/03 04:32:03;;;;;;;4.30;3.90;;;12.70;88.90;;;;;;5072200;28;20020;-76
2022/06/03 04:34:59;;;;;;;4.22;3.92;;;12.80;88.60;;;;;;5073140;28;20032;-75
2022/06/03 04:37:52;;;;;;;5.47;4.10;;;12.80;87.90;;;;;;5071969;28;20481;-74
2022/06/03 04:40:52;;;;;;;5.60;4.82;;;13.00;88.80;;;;;;5071649;28;20050;-77
2022/06/03 04:43:56;;;;;;;4.82;3.83;;;13.10;88.80;;;;;;5073302;28;20017;-74
2022/06/03 04:46:40;;;;;;;;;;;13.20;87.60;;;;;;5073526;28;20051;-74
2022/06/03 04:49:30;;;;;;;5.25;4.78;;;13.20;88.50;;;;;;5073182;28;19913;-74
2022/06/03 04:52:37;;;;;;;6.05;4.68;;;13.30;90.40;;;;;;5073215;28;20465;-76
2022/06/03 04:55:24;;;;;;;4.30;3.90;;;13.30;89.10;;;;;;5073024;28;20017;-77
2022/06/03 04:58:11;;;;;;;7.70;4.75;;;13.40;92.90;;;;;;5071858;28;20115;-74
2022/06/03 05:00:56;;;;;;;5.35;4.07;;;13.60;93.60;;;;;;5071715;28;20025;-74
2022/06/03 05:03:41;;;;;;;5.55;3.72;;;13.80;89.40;;;;;;5056006;28;20036;-77
2022/06/03 05:06:25;;;;;;;3.80;3.40;;;13.90;86.40;;;;;;5071490;28;20041;-77
2022/06/03 05:09:32;;;;;;;3.60;3.30;;;14.10;83.80;;;;;;5063886;28;20045;-76
2022/06/03 05:12:04;;;;;;;4.10;3.67;;;14.20;86.00;;;;;;5060959;28;20013;-77
2022/06/03 05:15:03;;;;;;;3.47;3.17;;;14.40;86.20;;;;;;5061929;28;20028;-77
2022/06/03 05:17:38;;;;;;;3.33;3.03;;;14.50;85.70;;;;;;5062555;28;20109;-77
2022/06/03 05:20:22;;;;;;;3.20;3.00;;;14.60;82.80;;;;;;5060545;28;20032;-77
2022/06/03 05:23:28;;;;;;;3.38;3.10;;;14.70;81.30;;;;;;5059684;28;20023;-77
2022/06/03 05:26:18;;;;;;;3.53;3.25;;;14.90;79.90;;;;;;5048106;28;20033;-78
2022/06/03 05:28:58;;;;;;;3.63;2.70;;;15.00;79.90;;;;;;5058433;28;20487;-78
2022/06/03 05:31:52;;;;;;;3.05;2.63;;;15.10;77.60;;;;;;5059167;28;20021;-77
2022/06/03 05:34:55;;;;;;;3.47;3.08;;;15.30;76.40;;;;;;5061033;28;20058;-77
2022/06/03 05:37:26;;;;;;;;;;;15.40;74.40;;;;;;5062065;28;20837;-75
2022/06/03 05:40:18;;;;;;;3.33;2.70;;;15.50;75.10;;;;;;5060366;28;20362;-76
2022/06/03 05:42:43;;;;;;;2.85;2.63;;;15.70;74.10;;;;;;5071032;28;20482;-78
2022/06/03 05:45:33;;;;;;;2.72;2.53;;;15.80;71.70;;;;;;5071114;28;20041;-76
2022/06/03 05:48:05;;;;;;;5.18;2.70;;;16.00;70.40;;;;;;5068132;28;20025;-76
2022/06/03 05:50:50;;;;;;;2.63;2.40;;;16.10;68.30;;;;;;5070887;28;20036;-76
2022/06/03 05:53:25;;;;;;;4.60;2.60;;;16.30;68.10;;;;;;5075577;28;20103;-76
2022/06/03 05:56:02;;;;;;;3.40;3.00;;;16.50;69.00;;;;;;5076151;28;20029;-76
2022/06/03 05:58:57;;;;;;;2.60;2.40;;;16.60;67.30;;;;;;5076231;28;20023;-76
2022/06/03 06:01:32;;;;;;;2.95;2.63;;;16.70;67.50;;;;;;5049577;28;20044;-77
2022/06/03 06:04:42;;;;;;;2.58;2.38;;;16.90;67.30;;;;;;5055947;28;20052;-77
2022/06/03 06:07:20;;;;;;;4.03;2.90;;;17.00;66.40;;;;;;5042854;28;20128;-76
2022/06/03 06:10:04;;;;;;;3.25;2.67;;;17.10;66.40;;;;;;5054735;28;20425;-78
2022/06/03 06:12:52;;;;;;;2.92;2.25;;;17.30;65.50;;;;;;5062260;28;20020;-77
2022/06/03 06:15:51;;;;;;;2.45;2.25;;;17.50;63.90;;;;;;5055820;28;20044;-79
2022/06/03 06:18:40;;;;;;;3.13;1.95;;;17.70;62.50;;;;;;5057719;28;20025;-77
2022/06/03 06:21:20;;;;;;;3.05;2.63;;;17.80;60.40;;;;;;5066242;28;20020;-78
2022/06/03 06:23:54;;;;;;;2.03;1.83;;;18.10;62.30;;;;;;5063400;28;20017;-77
2022/06/03 06:26:45;;;;;;;1.90;1.80;;;18.20;59.30;;;;;;5065056;28;20025;-77
2022/06/03 06:29:36;;;;;;;1.65;1.55;;;18.20;57.40;;;;;;5070961;28;20489;-79
2022/06/03 06:32:22;;;;;;;1.92;1.75;;;18.30;58.30;;;;;;5054035;28;20025;-77
2022/06/03 06:34:51;;;;;;;3.30;2.10;;;18.40;57.90;;;;;;5071222;28;20108;-77
2022/06/03 06:37:38;;;;;;;7.45;2.15;;;18.50;57.80;;;;;;5064291;28;20025;-77
2022/06/03 06:40:30;;;;;;;5.35;1.60;;;18.60;57.50;;;;;;5081349;28;20023;-77
2022/06/03 06:43:26;;;;;;;4.00;1.80;;;18.70;57.20;;;;;;5067378;28;20081;-77
2022/06/03 06:46:26;;;;;;;1.40;1.30;;;18.80;56.50;;;;;;5044954;28;20272;-78
2022/06/03 06:49:19;;;;;;;2.53;1.73;;;19.00;54.90;;;;;;5053863;28;20024;-78
2022/06/03 06:52:16;;;;;;;4.53;1.88;;;19.20;56.40;;;;;;5053522;28;20025;-78
2022/06/03 06:54:54;;;;;;;3.25;1.92;;;19.40;54.70;;;;;;5053889;28;20501;-78
2022/06/03 06:57:33;;;;;;;3.17;2.47;;;19.50;53.80;;;;;;5070597;28;20108;-80
2022/06/03 07:00:24;;;;;;;3.40;1.40;;;19.70;53.90;;;;;;5054133;28;20021;-78
2022/06/03 07:03:28;;;;;;;2.10;1.55;;;19.70;53.20;;;;;;5052742;28;20029;-78
2022/06/03 07:06:06;;;;;;;1.40;1.40;;;19.80;52.40;;;;;;5055590;28;20041;-79
2022/06/03 07:08:45;;;;;;;1.63;1.52;;;20.00;52.90;;;;;;5070072;28;20024;-79
2022/06/03 07:11:27;;;;;;;3.25;1.58;;;20.30;53.30;;;;;;5052551;28;20482;-79
2022/06/03 07:14:11;;;;;;;3.10;1.40;;;20.30;51.40;;;;;;5052716;28;20104;-78
2022/06/03 07:19:49;;;;;;;1.80;1.70;;;20.20;51.00;;;;;;5065471;28;20672;-78
2022/06/03 07:22:37;;;;;;;2.05;1.80;;;20.30;52.00;;;;;;5069483;28;20052;-78
2022/06/03 07:25:17;;;;;;;1.80;1.60;;;20.30;51.00;;;;;;5064228;28;20140;-78
2022/06/03 07:27:53;;;;;;;2.85;1.60;;;20.40;51.10;;;;;;5052798;28;20051;-80
2022/06/03 07:30:30;;;;;;;1.73;1.60;;;20.50;51.90;;;;;;5052403;28;20449;-78
2022/06/03 07:33:01;;;;;;;1.63;1.50;;;20.50;50.30;;;;;;5053089;28;20155;-79
2022/06/03 07:35:30;;;;;;;1.65;1.55;;;20.50;50.30;;;;;;5053274;28;20158;-79
2022/06/03 07:38:04;;;;;;;1.80;1.67;;;20.40;50.50;;;;;;5054381;28;20056;-79
2022/06/03 07:40:37;;;;;;;1.77;1.52;;;20.60;51.20;;;;;;5053159;28;20031;-79
2022/06/03 07:43:15;;;;;;;1.42;1.33;;;20.60;49.20;;;;;;5052942;28;20025;-78
2022/06/03 07:45:56;;;;;;;2.08;1.92;;;20.80;50.00;;;;;;5054473;28;20021;-78
2022/06/03 07:48:24;;;;;;;1.65;1.52;;;20.90;48.70;;;;;;5054382;28;20379;-79
2022/06/03 07:51:06;;;;;;;2.03;1.83;;;21.00;48.60;;;;;;5053003;28;20128;-79
2022/06/03 07:53:47;;;;;;;2.08;1.83;;;21.10;48.80;;;;;;5054041;28;20021;-78
2022/06/03 07:56:20;;;;;;;2.55;1.80;;;21.00;48.70;;;;;;5054194;28;20108;-77
2022/06/03 07:58:48;;;;;;;3.17;1.95;;;21.20;48.00;;;;;;5052892;28;20021;-77
2022/06/03 08:01:26;;;;;;;2.28;1.90;;;21.30;48.50;;;;;;5050486;28;20024;-76
2022/06/03 08:03:52;;;;;;;2.85;1.80;;;21.40;47.10;;;;;;5047177;28;20039;-76
2022/06/03 08:06:31;;;;;;;2.13;1.88;;;21.40;46.40;;;;;;5047281;28;20013;-77
2022/06/03 08:11:45;;;;;;;2.72;2.38;;;21.70;46.20;;;;;;5052743;28;20056;-77
2022/06/03 08:14:10;;;;;;;2.17;1.90;;;21.80;46.20;;;;;;5052487;28;20104;-76
2022/06/03 08:16:42;;;;;;;2.00;1.80;;;21.90;46.30;;;;;;5049621;28;20159;-76
2022/06/03 08:19:12;;;;;;;1.90;1.80;;;22.10;46.30;;;;;;5062258;28;20032;-76
2022/06/03 08:21:53;;;;;;;1.90;1.80;;;22.40;46.20;;;;;;5069142;28;20020;-76
2022/06/03 08:24:24;;;;;;;2.00;1.90;;;22.50;46.40;;;;;;5069739;28;20025;-77
2022/06/03 08:26:55;;;;;;;2.25;1.80;;;22.50;46.00;;;;;;5051551;28;20013;-76
2022/06/03 08:29:29;;;;;;;4.53;2.20;;;22.40;45.70;;;;;;5051510;28;20033;-77
2022/06/03 08:31:56;;;;;;;3.03;1.85;;;22.40;45.80;;;;;;5053085;28;20025;-76
2022/06/03 08:34:39;;;;;;;1.60;1.60;;;22.60;46.40;;;;;;5053457;28;20053;-77
2022/06/03 08:37:09;;;;;;;1.88;1.77;;;22.70;46.40;;;;;;5053370;28;20028;-76
2022/06/03 08:39:38;;;;;;;1.73;1.63;;;22.80;43.80;;;;;;5051969;28;20059;-76
2022/06/03 08:42:17;;;;;;;1.70;1.60;;;22.80;43.80;;;;;;5052070;28;20017;-76
2022/06/03 08:45:08;;;;;;;1.80;1.70;;;22.90;42.80;;;;;;5051400;28;20386;-77
2022/06/03 08:47:48;;;;;;;2.90;1.83;;;22.90;43.40;;;;;;5053128;28;20072;-77
2022/06/03 08:50:40;;;;;;;4.47;2.00;;;22.60;41.70;;;;;;5053172;28;20033;-76
2022/06/03 08:53:08;;;;;;;;;;;22.50;44.00;;;;;;5052283;28;20386;-76
2022/06/03 08:55:37;;;;;;;1.40;1.30;;;22.30;43.60;;;;;;5053210;28;19943;-76
2022/06/03 08:58:27;;;;;;;1.35;1.30;;;22.30;44.60;;;;;;5053076;28;20017;-76
2022/06/03 09:00:58;;;;;;;3.30;1.73;;;22.20;43.00;;;;;;5051701;28;20116;-77
2022/06/03 09:03:27;;;;;;;1.43;1.43;;;22.40;41.80;;;;;;5051633;28;20037;-77
2022/06/03 09:06:06;;;;;;;2.25;2.05;;;22.40;40.10;;;;;;5052841;28;20735;-77
2022/06/03 09:08:42;;;;;;;2.45;1.50;;;22.20;42.80;;;;;;5051961;28;20104;-77
2022/06/03 09:11:18;;;;;;;2.55;1.95;;;22.30;43.50;;;;;;5052973;28;20036;-77
2022/06/03 09:14:03;;;;;;;1.75;1.65;;;22.40;44.20;;;;;;5052791;28;20025;-76
2022/06/03 09:16:30;;;;;;;6.80;2.33;;;22.30;43.70;;;;;;5052954;28;20044;-77
2022/06/03 09:19:01;;;;;;;2.00;1.90;;;22.10;44.50;;;;;;5060883;28;20024;-77
2022/06/03 09:21:33;;;;;;;4.05;2.10;;;22.20;43.80;;;;;;5071664;28;20024;-76
2022/06/03 09:24:01;;;;;;;;;;;22.30;43.20;;;;;;5071942;28;20060;-77
2022/06/03 09:26:36;;;;;;;2.67;1.75;;;22.40;45.00;;;;;;5068432;28;19971;-77
2022/06/03 09:29:05;;;;;;;2.25;1.92;;;22.40;44.10;;;;;;5056762;28;20028;-76
2022/06/03 09:31:34;;;;;;;3.45;1.70;;;22.50;45.20;;;;;;5072331;28;20020;-76
2022/06/03 09:34:00;;;;;;;2.92;1.80;;;22.40;44.20;;;;;;5056658;28;20454;-76
2022/06/03 09:36:27;;;;;;;2.10;1.73;;;22.10;42.70;;;;;;5056776;28;20032;-76
2022/06/03 09:39:02;;;;;;;1.60;1.50;;;22.20;43.90;;;;;;5071925;28;20017;-77
2022/06/03 09:41:34;;;;;;;2.00;1.85;;;22.20;43.80;;;;;;5056687;28;20017;-77
2022/06/03 09:44:03;;;;;;;1.60;1.50;;;22.40;43.60;;;;;;5071879;28;20036;-76
2022/06/03 09:46:31;;;;;;;1.48;1.38;;;22.70;43.40;;;;;;5072059;28;20474;-76
2022/06/03 09:48:57;;;;;;;1.70;1.60;;;22.90;41.00;;;;;;5056338;28;20147;-76
2022/06/03 09:51:55;;;;;;;1.90;1.65;;;22.90;42.10;;;;;;5056579;28;20113;-77
2022/06/03 09:54:18;;;;;;;1.77;1.67;;;23.00;43.00;;;;;;5056204;28;20028;-76
2022/06/03 09:56:48;;;;;;;1.45;1.40;;;23.00;42.20;;;;;;5071733;28;20172;-76
2022/06/03 09:59:14;;;;;;;2.13;1.67;;;23.30;42.90;;;;;;5056155;28;20061;-76
2022/06/03 10:01:39;;;;;;;1.75;1.65;;;23.20;42.00;;;;;;5071728;28;20151;-76
2022/06/03 10:04:06;;;;;;;2.13;1.55;;;23.00;42.20;;;;;;5071200;28;20087;-77
2022/06/03 10:06:47;;;;;;;1.85;1.75;;;22.90;42.00;;;;;;5071641;28;20021;-77
2022/06/03 10:17:38;;;;;;;2.63;1.88;;;23.50;41.60;;;;;;5056293;28;20036;-76
2022/06/03 10:20:06;;;;;;;1.40;1.30;;;23.60;40.00;;;;;;5090880;28;20016;-76
2022/06/03 10:22:32;;;;;;;1.75;1.60;;;23.30;40.90;;;;;;5074683;28;20154;-77
2022/06/03 10:24:58;;;;;;;2.05;1.90;;;23.60;41.40;;;;;;5067742;28;20100;-76
2022/06/03 10:27:23;;;;;;;1.77;1.65;;;23.70;41.80;;;;;;5055869;28;20484;-76
2022/06/03 10:29:51;;;;;;;2.13;1.92;;;23.60;41.20;;;;;;5054185;28;20033;-76
2022/06/03 10:32:21;;;;;;;1.80;1.70;;;23.60;42.40;;;;;;5054456;28;20044;-77
2022/06/03 10:34:47;;;;;;;1.77;1.67;;;23.40;41.80;;;;;;5055449;28;20039;-76
2022/06/03 10:37:19;;;;;;;3.00;1.60;;;23.50;41.30;;;;;;5054099;28;20108;-76
2022/06/03 10:39:45;;;;;;;1.88;1.63;;;23.40;39.80;;;;;;5054291;28;20052;-76
2022/06/03 10:42:16;;;;;;;1.55;1.45;;;23.30;39.80;;;;;;5055599;28;20025;-77
2022/06/03 10:44:46;;;;;;;2.65;1.58;;;23.50;39.90;;;;;;5055319;28;20546;-76
2022/06/03 10:47:19;;;;;;;1.67;1.30;;;23.80;39.80;;;;;;5054294;28;20019;-77
2022/06/03 10:49:54;;;;;;;2.50;2.30;;;23.90;38.50;;;;;;5053979;28;20040;-76
2022/06/03 11:01:06;;;;;;;1.83;1.60;;;24.20;38.00;;;;;;5054994;28;20082;-77
2022/06/03 11:03:33;;;;;;;3.05;1.65;;;24.20;40.00;;;;;;5053900;28;20021;-77
2022/06/03 11:06:14;;;;;;;3.05;1.35;;;23.90;39.60;;;;;;5053844;28;20079;-76
2022/06/03 11:09:00;;;;;;;1.75;1.65;;;23.50;39.20;;;;;;5055195;28;20532;-76
2022/06/03 11:11:30;;;;;;;3.75;1.70;;;23.60;41.10;;;;;;5053756;28;20064;-76
2022/06/03 11:13:56;;;;;;;2.15;1.55;;;23.60;40.20;;;;;;5055284;28;20025;-76
2022/06/03 11:16:24;;;;;;;2.65;1.75;;;23.60;40.80;;;;;;5053562;28;20121;-77
2022/06/03 11:18:50;;;;;;;1.67;1.58;;;23.80;39.50;;;;;;5064274;28;20138;-79
2022/06/03 11:21:28;;;;;;;2.33;1.42;;;23.80;40.80;;;;;;5073288;28;20417;-77
2022/06/03 11:23:57;;;;;;;2.17;1.63;;;23.80;40.20;;;;;;5074899;28;20112;-77
2022/06/03 11:26:31;;;;;;;3.08;2.88;;;23.70;39.40;;;;;;5070018;28;20168;-79
2022/06/03 11:29:08;;;;;;;2.33;2.05;;;24.00;39.80;;;;;;5069809;28;20497;-79
2022/06/03 11:31:39;;;;;;;2.08;1.85;;;24.30;39.00;;;;;;5054566;28;20032;-79
2022/06/03 11:34:14;;;;;;;1.60;1.50;;;24.40;40.50;;;;;;5053260;28;20021;-79
2022/06/03 11:36:54;;;;;;;1.83;1.73;;;24.40;39.30;;;;;;5069963;28;20025;-79
2022/06/03 11:39:41;;;;;;;2.00;1.85;;;24.60;38.40;;;;;;5054562;28;20025;-79
2022/06/03 11:42:28;;;;;;;2.63;1.85;;;24.50;38.30;;;;;;5069768;28;20063;-79
2022/06/03 11:45:21;;;;;;;2.20;1.98;;;24.50;39.80;;;;;;5052888;28;20472;-80
2022/06/03 11:47:57;;;;;;;2.00;1.88;;;24.50;38.70;;;;;;5054195;28;20123;-79
2022/06/03 11:50:26;;;;;;;3.25;1.58;;;24.50;39.30;;;;;;5068798;28;20435;-79
2022/06/03 11:52:53;;;;;;;2.30;2.00;;;24.30;40.00;;;;;;5069285;28;20049;-79
2022/06/03 11:55:26;;;;;;;2.90;2.03;;;24.20;39.50;;;;;;5069458;28;20176;-79
2022/06/03 11:58:04;;;;;;;2.40;1.63;;;24.20;39.70;;;;;;5053923;28;20070;-79
2022/06/03 12:00:36;;;;;;;1.80;1.70;;;24.20;38.10;;;;;;5053959;28;20059;-77
2022/06/03 12:03:24;;;;;;;4.43;1.90;;;24.30;37.60;;;;;;5055915;28;20029;-77
2022/06/03 12:05:59;;;;;;;3.17;1.92;;;24.30;39.10;;;;;;5056367;28;20076;-76
2022/06/03 12:08:49;;;;;;;2.03;1.70;;;24.30;39.40;;;;;;5069788;28;20021;-76
2022/06/03 12:14:36;;;;;;;4.60;3.00;;;24.20;37.80;;;;;;5053753;28;20570;-77
2022/06/03 12:17:11;;;;;;;2.20;1.70;;;24.40;37.90;;;;;;5053658;28;20027;-77
2022/06/03 12:19:39;;;;;;;4.20;1.90;;;24.50;37.90;;;;;;5069992;28;20024;-76
2022/06/03 12:22:14;;;;;;;2.40;2.10;;;24.70;38.60;;;;;;5073523;28;20031;-77
2022/06/03 12:24:43;;;;;;;2.95;2.38;;;25.10;40.30;;;;;;5066179;28;20433;-76
2022/06/03 12:27:36;;;;;;;6.70;2.10;;;25.20;37.70;;;;;;5053480;28;20043;-77
2022/06/03 12:30:20;;;;;;;3.63;2.00;;;25.20;36.90;;;;;;5052097;28;20076;-76
2022/06/03 12:33:09;;;;;;;2.10;2.00;;;25.30;38.60;;;;;;5052154;28;20029;-77
2022/06/03 12:35:44;;;;;;;2.47;2.28;;;25.30;37.00;;;;;;5052273;28;20029;-76
2022/06/03 12:38:23;;;;;;;5.93;2.10;;;25.00;38.00;;;;;;5052026;28;20032;-77
2022/06/03 12:40:51;;;;;;;5.75;2.35;;;25.00;39.00;;;;;;5053618;28;20036;-76
2022/06/03 12:43:22;;;;;;;2.28;1.73;;;25.00;38.30;;;;;;5053043;28;20025;-77
2022/06/03 12:46:01;;;;;;;3.90;2.20;;;25.00;39.40;;;;;;5051967;28;20021;-77
2022/06/03 12:48:49;;;;;;;2.10;2.00;;;24.90;39.00;;;;;;5053432;28;20056;-76
2022/06/03 12:51:20;;;;;;;2.13;2.03;;;24.90;38.80;;;;;;5051850;28;20033;-76
2022/06/03 12:53:48;;;;;;;1.85;1.75;;;24.70;37.50;;;;;;5053141;28;20025;-77
2022/06/03 12:56:44;;;;;;;2.40;2.20;;;24.70;38.20;;;;;;5053117;28;20040;-77
2022/06/03 12:59:31;;;;;;;2.97;2.30;;;24.60;38.60;;;;;;5051927;28;20036;-76
2022/06/03 13:02:17;;;;;;;3.85;2.13;;;24.90;39.20;;;;;;5052769;28;20020;-79
2022/06/03 13:04:55;;;;;;;2.90;2.40;;;25.00;39.00;;;;;;5051453;28;20053;-79
2022/06/03 13:07:26;;;;;;;3.28;2.40;;;25.10;38.70;;;;;;5051770;28;20106;-81
2022/06/03 13:09:56;;;;;;;2.15;2.00;;;25.10;37.60;;;;;;5052900;28;20041;-79
2022/06/03 13:12:36;;;;;;;6.72;2.05;;;25.00;38.00;;;;;;5052826;28;20020;-79
2022/06/03 13:15:17;;;;;;;2.33;1.70;;;24.90;38.00;;;;;;5052622;28;20025;-79
2022/06/03 13:17:55;;;;;;;2.83;2.35;;;24.90;38.10;;;;;;5052424;28;20029;-79
2022/06/03 13:20:38;;;;;;;4.40;2.15;;;24.90;40.00;;;;;;5072993;28;20424;-79
2022/06/03 13:23:19;;;;;;;3.22;2.03;;;24.80;38.40;;;;;;5072617;28;20039;-79
2022/06/03 13:25:47;;;;;;;2.67;1.92;;;24.90;39.90;;;;;;5056416;28;20025;-79
2022/06/03 13:28:18;;;;;;;2.47;2.20;;;25.00;38.80;;;;;;5051406;28;20360;-79
2022/06/03 13:31:17;;;;;;;2.30;2.13;;;24.80;37.80;;;;;;5052729;28;20082;-79
2022/06/03 13:34:02;;;;;;;4.13;2.30;;;24.90;39.00;;;;;;5051325;28;20025;-79
2022/06/03 13:36:37;;;;;;;2.00;1.90;;;24.90;39.30;;;;;;5052831;28;20025;-80
2022/06/03 13:39:10;;;;;;;2.00;1.80;;;24.80;39.30;;;;;;5051328;28;20059;-79
2022/06/03 13:44:46;;;;;;;2.08;1.98;;;24.70;40.90;;;;;;5052652;28;20048;-79
2022/06/03 13:47:22;;;;;;;2.15;1.90;;;24.50;40.10;;;;;;5052903;28;20120;-79
2022/06/03 13:50:14;;;;;;;2.38;1.90;;;24.40;39.00;;;;;;5052671;28;20029;-79
2022/06/03 13:52:54;;;;;;;2.15;1.67;;;24.50;39.20;;;;;;5052730;28;20096;-79
2022/06/03 13:55:46;;;;;;;1.65;1.55;;;24.60;39.30;;;;;;5052639;28;20021;-80
2022/06/03 13:58:31;;;;;;;2.30;2.10;;;24.50;39.20;;;;;;5052048;28;20048;-80
2022/06/03 14:01:33;;;;;;;2.55;1.80;;;24.60;38.00;;;;;;5051131;28;20068;-79
2022/06/03 14:04:07;;;;;;;6.50;2.30;;;24.80;38.40;;;;;;5050890;28;20116;-80
2022/06/03 14:06:45;;;;;;;1.90;1.80;;;24.70;38.90;;;;;;5051243;28;20021;-79
2022/06/03 14:09:36;;;;;;;1.92;1.83;;;24.90;38.20;;;;;;5052324;28;20032;-79
2022/06/03 14:12:05;;;;;;;2.17;2.00;;;25.00;37.30;;;;;;5051249;28;20043;-79
2022/06/03 14:14:56;;;;;;;2.08;1.80;;;25.10;37.20;;;;;;5055673;28;20075;-79
2022/06/03 14:17:48;;;;;;;4.97;1.98;;;25.10;37.00;;;;;;5054879;28;20451;-80
2022/06/03 14:20:15;;;;;;;2.72;1.70;;;25.10;36.80;;;;;;5054822;28;20021;-79
2022/06/03 14:22:56;;;;;;;2.00;1.90;;;25.00;37.50;;;;;;5055997;28;20029;-79
2022/06/03 14:25:25;;;;;;;1.80;1.58;;;25.00;36.50;;;;;;5068289;28;20017;-79
2022/06/03 14:28:25;;;;;;;2.80;1.80;;;25.00;35.60;;;;;;5075778;28;20028;-79
2022/06/03 14:31:13;;;;;;;1.85;1.75;;;25.00;35.80;;;;;;5085746;28;20090;-80
2022/06/03 14:33:44;;;;;;;2.33;1.80;;;25.20;36.90;;;;;;5058374;28;20029;-79